createdAt,value
2024-01-12T00:01:20.364Z,-7.93
2024-01-12T00:03:47.921Z,-7.97
2024-01-12T00:06:15.473Z,-7.99
2024-01-12T00:08:43.063Z,-8.02
2024-01-12T00:11:10.756Z,-8.02
2024-01-12T00:13:39.444Z,-8.05
2024-01-12T00:16:07.887Z,-8.12
2024-01-12T00:18:35.895Z,-8.16
2024-01-12T00:21:03.676Z,-8.17
2024-01-12T00:23:31.306Z,-8.24
2024-01-12T00:26:00.983Z,-8.28
2024-01-12T00:28:28.866Z,-8.33
2024-01-12T00:30:56.468Z,-8.35
2024-01-12T00:33:24.187Z,-8.37
2024-01-12T00:35:51.942Z,-8.40
2024-01-12T00:38:19.449Z,-8.46
2024-01-12T00:40:46.981Z,-8.46
2024-01-12T00:43:14.439Z,-8.50
2024-01-12T00:45:41.897Z,-8.49
2024-01-12T00:48:09.750Z,-8.52
2024-01-12T00:50:37.400Z,-8.55
2024-01-12T00:53:05.091Z,-8.56
2024-01-12T00:55:32.968Z,-8.57
2024-01-12T00:58:00.418Z,-8.58
2024-01-12T01:00:27.984Z,-8.61
2024-01-12T01:02:55.560Z,-8.62
2024-01-12T01:05:23.112Z,-8.66
2024-01-12T01:07:50.668Z,-8.67
2024-01-12T01:10:18.145Z,-8.69
2024-01-12T01:12:45.698Z,-8.73
2024-01-12T01:15:14.985Z,-8.73
2024-01-12T01:17:44.515Z,-8.79
2024-01-12T01:20:12.829Z,-8.80
2024-01-12T01:22:40.432Z,-8.82
2024-01-12T01:25:08.154Z,-8.86
2024-01-12T01:27:36.069Z,-8.90
2024-01-12T01:30:04.048Z,-8.92
2024-01-12T01:32:31.744Z,-8.89
2024-01-12T01:34:59.310Z,-8.90
2024-01-12T01:37:26.828Z,-8.92
2024-01-12T01:39:54.289Z,-8.94
2024-01-12T01:42:21.661Z,-8.98
2024-01-12T01:44:49.143Z,-8.99
2024-01-12T01:47:17.440Z,-8.98
2024-01-12T01:49:45.211Z,-8.99
2024-01-12T01:52:12.906Z,-8.99
2024-01-12T01:54:40.374Z,-9.01
2024-01-12T01:57:10.122Z,-9.03
2024-01-12T01:59:37.891Z,-9.03
2024-01-12T02:02:05.759Z,-9.07
2024-01-12T02:04:33.386Z,-9.10
2024-01-12T02:07:00.945Z,-9.15
2024-01-12T02:09:30.090Z,-9.17
2024-01-12T02:11:57.639Z,-9.17
2024-01-12T02:14:25.780Z,-9.18
2024-01-12T02:16:57.533Z,-9.19
2024-01-12T02:19:25.029Z,-9.20
2024-01-12T02:21:52.569Z,-9.19
2024-01-12T02:24:20.018Z,-9.20
2024-01-12T02:26:47.492Z,-9.24
2024-01-12T02:29:15.002Z,-9.26
2024-01-12T02:31:42.604Z,-9.27
2024-01-12T02:34:10.209Z,-9.28
2024-01-12T02:36:37.848Z,-9.31
2024-01-12T02:39:05.447Z,-9.32
2024-01-12T02:41:32.971Z,-9.32
2024-01-12T02:44:00.637Z,-9.32
2024-01-12T02:46:28.141Z,-9.30
2024-01-12T02:48:55.746Z,-9.32
2024-01-12T02:51:23.505Z,-9.35
2024-01-12T02:53:51.099Z,-9.37
2024-01-12T02:56:18.759Z,-9.39
2024-01-12T02:58:46.300Z,-9.42
2024-01-12T03:01:13.901Z,-9.46
2024-01-12T03:03:41.561Z,-9.50
2024-01-12T03:06:09.291Z,-9.49
2024-01-12T03:08:36.905Z,-9.53
2024-01-12T03:11:05.110Z,-9.55
2024-01-12T03:13:34.516Z,-9.54
2024-01-12T03:16:02.083Z,-9.57
2024-01-12T03:18:30.274Z,-9.60
2024-01-12T03:20:59.397Z,-9.64
2024-01-12T03:23:27.075Z,-9.67
2024-01-12T03:25:54.812Z,-9.69
2024-01-12T03:28:22.252Z,-9.71
2024-01-12T03:30:49.968Z,-9.74
2024-01-12T03:33:17.766Z,-9.79
2024-01-12T03:35:45.380Z,-9.82
2024-01-12T03:38:14.137Z,-9.82
2024-01-12T03:40:41.744Z,-9.83
2024-01-12T03:43:09.244Z,-9.87
2024-01-12T03:45:36.913Z,-9.89
2024-01-12T03:48:05.038Z,-9.91
2024-01-12T03:50:32.698Z,-9.96
2024-01-12T03:53:00.427Z,-9.99
2024-01-12T03:55:28.289Z,-10.00
2024-01-12T03:57:56.266Z,-10.04
2024-01-12T04:00:23.817Z,-10.09
2024-01-12T04:02:51.333Z,-10.13
2024-01-12T04:05:19.292Z,-10.12
2024-01-12T04:07:46.909Z,-10.12
2024-01-12T04:10:14.365Z,-10.17
2024-01-12T04:12:41.768Z,-10.16
2024-01-12T04:15:10.539Z,-10.17
2024-01-12T04:17:38.814Z,-10.18
2024-01-12T04:20:07.146Z,-10.21
2024-01-12T04:22:34.736Z,-10.25
2024-01-12T04:25:03.004Z,-10.27
2024-01-12T04:27:31.007Z,-10.29
2024-01-12T04:29:58.573Z,-10.31
2024-01-12T04:32:27.955Z,-10.33
2024-01-12T04:34:55.766Z,-10.36
2024-01-12T04:37:23.272Z,-10.40
2024-01-12T04:39:50.976Z,-10.43
2024-01-12T04:42:19.745Z,-10.45
2024-01-12T04:44:47.308Z,-10.49
2024-01-12T04:47:14.955Z,-10.49
2024-01-12T04:49:42.721Z,-10.50
2024-01-12T04:52:10.397Z,-10.53
2024-01-12T04:54:37.948Z,-10.55
2024-01-12T04:57:05.696Z,-10.55
2024-01-12T04:59:33.532Z,-10.58
2024-01-12T05:02:01.041Z,-10.62
2024-01-12T05:04:29.033Z,-10.65
2024-01-12T05:06:56.668Z,-10.68
2024-01-12T05:09:24.340Z,-10.69
2024-01-12T05:11:51.850Z,-10.74
2024-01-12T05:14:19.394Z,-10.78
2024-01-12T05:16:47.024Z,-10.79
2024-01-12T05:19:14.626Z,-10.78
2024-01-12T05:21:42.159Z,-10.83
2024-01-12T05:24:09.733Z,-10.84
2024-01-12T05:26:38.155Z,-10.87
2024-01-12T05:29:06.057Z,-10.88
2024-01-12T05:31:33.822Z,-10.91
2024-01-12T05:34:01.491Z,-10.95
2024-01-12T05:36:29.028Z,-10.98
2024-01-12T05:38:56.639Z,-10.97
2024-01-12T05:41:24.431Z,-10.95
2024-01-12T05:43:52.046Z,-10.99
2024-01-12T05:46:20.636Z,-11.01
2024-01-12T05:48:48.357Z,-10.99
2024-01-12T05:51:16.386Z,-10.97
2024-01-12T05:53:45.391Z,-10.99
2024-01-12T05:56:13.743Z,-11.02
2024-01-12T05:58:41.211Z,-11.06
2024-01-12T06:01:10.132Z,-11.10
2024-01-12T06:03:37.778Z,-11.12
2024-01-12T06:06:05.732Z,-11.13
2024-01-12T06:08:33.408Z,-11.16
2024-01-12T06:11:01.695Z,-11.19
2024-01-12T06:13:29.223Z,-11.19
2024-01-12T06:15:57.715Z,-11.19
2024-01-12T06:18:26.050Z,-11.20
2024-01-12T06:20:54.015Z,-11.22
2024-01-12T06:23:21.770Z,-11.21
2024-01-12T06:25:49.494Z,-11.23
2024-01-12T06:28:16.874Z,-11.27
2024-01-12T06:30:44.491Z,-11.24
2024-01-12T06:33:15.719Z,-11.20
2024-01-12T06:35:43.589Z,-11.18
2024-01-12T06:38:11.722Z,-11.17
2024-01-12T06:40:39.910Z,-11.18
2024-01-12T06:43:07.338Z,-11.17
2024-01-12T06:45:34.798Z,-11.13
2024-01-12T06:48:02.460Z,-11.12
2024-01-12T06:50:30.631Z,-11.08
2024-01-12T06:52:58.402Z,-11.02
2024-01-12T06:55:25.974Z,-10.99
2024-01-12T06:57:53.530Z,-10.98
2024-01-12T07:00:21.518Z,-10.98
2024-01-12T07:02:49.095Z,-10.93
2024-01-12T07:05:16.708Z,-10.90
2024-01-12T07:07:44.700Z,-10.86
2024-01-12T07:10:15.161Z,-10.84
2024-01-12T07:12:42.781Z,-10.78
2024-01-12T07:15:10.752Z,-10.71
2024-01-12T07:17:38.320Z,-10.62
2024-01-12T07:20:06.894Z,-10.54
2024-01-12T07:22:34.365Z,-10.49
2024-01-12T07:25:02.026Z,-10.51
2024-01-12T07:27:29.485Z,-10.50
2024-01-12T07:29:57.084Z,-10.50
2024-01-12T07:32:25.195Z,-10.49
2024-01-12T07:34:52.990Z,-10.47
2024-01-12T07:37:21.224Z,-10.43
2024-01-12T07:39:48.928Z,-10.39
2024-01-12T07:42:16.488Z,-10.34
2024-01-12T07:44:44.055Z,-10.27
2024-01-12T07:47:11.825Z,-10.21
2024-01-12T07:49:39.601Z,-10.17
2024-01-12T07:52:07.444Z,-10.14
2024-01-12T07:54:34.914Z,-10.15
2024-01-12T07:57:02.534Z,-10.13
2024-01-12T07:59:30.167Z,-10.10
2024-01-12T08:01:57.806Z,-10.04
2024-01-12T08:04:25.508Z,-9.99
2024-01-12T08:06:53.342Z,-9.93
2024-01-12T08:09:21.094Z,-9.89
2024-01-12T08:11:48.739Z,-9.86
2024-01-12T08:14:17.279Z,-9.83
2024-01-12T08:16:44.910Z,-9.78
2024-01-12T08:19:12.300Z,-9.70
2024-01-12T08:21:45.732Z,-9.62
2024-01-12T08:24:19.979Z,-9.56
2024-01-12T08:26:47.652Z,-9.48
2024-01-12T08:29:15.470Z,-9.38
2024-01-12T08:31:43.668Z,-9.26
2024-01-12T08:34:11.467Z,-9.04
2024-01-12T08:36:39.240Z,-8.75
2024-01-12T08:39:06.893Z,-8.42
2024-01-12T08:41:34.425Z,-7.95
2024-01-12T08:44:02.037Z,-7.57
2024-01-12T08:46:29.674Z,-7.32
2024-01-12T08:48:57.685Z,-7.06
2024-01-12T08:51:25.807Z,-6.97
2024-01-12T08:53:53.303Z,-7.01
2024-01-12T08:56:20.876Z,-7.04
2024-01-12T08:58:48.415Z,-7.02
2024-01-12T09:01:16.106Z,-6.68
2024-01-12T09:03:44.077Z,-6.64
2024-01-12T09:06:12.394Z,-6.57
2024-01-12T09:08:40.136Z,-6.49
2024-01-12T09:11:07.626Z,-6.27
2024-01-12T09:13:35.405Z,-6.07
2024-01-12T09:16:02.850Z,-6.23
2024-01-12T09:18:30.518Z,-6.52
2024-01-12T09:20:58.129Z,-6.63
2024-01-12T09:23:25.799Z,-6.53
2024-01-12T09:25:55.738Z,-6.41
2024-01-12T09:28:23.741Z,-6.15
2024-01-12T09:30:51.456Z,-5.75
2024-01-12T09:33:19.270Z,-5.38
2024-01-12T09:35:47.191Z,-5.13
2024-01-12T09:38:14.705Z,-4.73
2024-01-12T09:40:42.268Z,-4.30
2024-01-12T09:43:11.530Z,-4.02
2024-01-12T09:45:39.033Z,-4.00
2024-01-12T09:48:06.687Z,-4.08
2024-01-12T09:50:34.300Z,-4.26
2024-01-12T09:53:02.335Z,-4.03
2024-01-12T09:55:29.933Z,-3.58
2024-01-12T09:57:57.448Z,-3.48
2024-01-12T10:00:27.458Z,-3.37
2024-01-12T10:02:57.110Z,-3.17
2024-01-12T10:05:24.763Z,-2.96
2024-01-12T10:07:52.416Z,-2.68
2024-01-12T10:10:19.867Z,-2.26
2024-01-12T10:12:50.722Z,-2.08
2024-01-12T10:15:19.405Z,-2.22
2024-01-12T10:17:47.064Z,-2.07
2024-01-12T10:20:14.825Z,-1.99
2024-01-12T10:22:42.487Z,-1.94
2024-01-12T10:25:10.049Z,-1.69
2024-01-12T10:27:37.503Z,-1.60
2024-01-12T10:30:05.937Z,-1.86
2024-01-12T10:32:33.651Z,-1.91
2024-01-12T10:35:01.391Z,-1.68
2024-01-12T10:37:28.883Z,-1.68
2024-01-12T10:39:56.436Z,-1.82
2024-01-12T10:42:25.022Z,-2.14
2024-01-12T10:44:53.182Z,-2.37
2024-01-12T10:47:23.953Z,-2.42
2024-01-12T10:49:54.852Z,-2.60
2024-01-12T10:52:27.655Z,-3.29
2024-01-12T10:54:58.924Z,-4.28
2024-01-12T10:57:26.586Z,-4.65
2024-01-12T10:59:54.108Z,-4.18
2024-01-12T11:02:21.833Z,-3.90
2024-01-12T11:04:49.457Z,-4.10
2024-01-12T11:07:17.319Z,-4.30
2024-01-12T11:09:45.091Z,-4.24
2024-01-12T11:12:13.773Z,-4.54
2024-01-12T11:14:41.401Z,-4.92
2024-01-12T11:17:09.101Z,-5.04
2024-01-12T11:19:36.867Z,-5.27
2024-01-12T11:22:06.690Z,-4.93
2024-01-12T11:24:35.077Z,-4.44
2024-01-12T11:27:04.337Z,-3.84
2024-01-12T11:29:33.408Z,-3.41
2024-01-12T11:32:01.452Z,-3.26
2024-01-12T11:34:33.371Z,-3.81
2024-01-12T11:37:01.287Z,-3.60
2024-01-12T11:39:35.542Z,-3.08
2024-01-12T11:42:09.663Z,-3.06
2024-01-12T11:44:37.948Z,-3.64
2024-01-12T11:47:06.466Z,-4.29
2024-01-12T11:49:34.037Z,-4.20
2024-01-12T11:52:03.339Z,-3.96
2024-01-12T11:54:30.790Z,-3.83
2024-01-12T11:56:58.547Z,-3.99
2024-01-12T11:59:26.158Z,-4.65
2024-01-12T12:01:53.777Z,-5.02
2024-01-12T12:04:21.390Z,-5.01
2024-01-12T12:06:49.390Z,-4.99
2024-01-12T12:09:17.076Z,-4.76
2024-01-12T12:11:44.716Z,-4.70
2024-01-12T12:14:12.420Z,-4.71
2024-01-12T12:16:40.080Z,-4.53
2024-01-12T12:19:07.679Z,-4.68
2024-01-12T12:21:36.625Z,-4.79
2024-01-12T12:24:04.440Z,-4.89
2024-01-12T12:26:33.261Z,-4.98
2024-01-12T12:29:00.944Z,-5.21
2024-01-12T12:31:29.329Z,-5.43
2024-01-12T12:33:57.100Z,-5.45
2024-01-12T12:36:24.797Z,-5.54
2024-01-12T12:38:52.444Z,-5.69
2024-01-12T12:41:19.907Z,-5.77
2024-01-12T12:43:48.474Z,-5.70
2024-01-12T12:46:16.026Z,-5.68
2024-01-12T12:48:43.884Z,-5.42
2024-01-12T12:51:12.359Z,-5.22
2024-01-12T12:53:39.879Z,-5.15
2024-01-12T12:56:07.401Z,-4.90
2024-01-12T12:58:34.970Z,-4.61
2024-01-12T13:01:02.580Z,-4.48
2024-01-12T13:03:30.332Z,-4.84
2024-01-12T13:05:57.931Z,-5.55
2024-01-12T13:08:25.585Z,-6.27
2024-01-12T13:10:54.132Z,-6.61
2024-01-12T13:13:22.390Z,-6.82
2024-01-12T13:15:50.555Z,-7.07
2024-01-12T13:18:18.411Z,-7.43
2024-01-12T13:20:47.718Z,-7.56
2024-01-12T13:23:15.384Z,-7.76
2024-01-12T13:25:42.941Z,-7.81
2024-01-12T13:28:10.498Z,-7.69
2024-01-12T13:30:38.105Z,-7.53
2024-01-12T13:33:05.931Z,-7.43
2024-01-12T13:35:33.958Z,-7.45
2024-01-12T13:38:01.576Z,-7.54
2024-01-12T13:40:29.130Z,-7.72
2024-01-12T13:42:56.713Z,-7.87
2024-01-12T13:45:24.358Z,-7.96
2024-01-12T13:47:52.091Z,-8.14
2024-01-12T13:50:21.176Z,-8.30
2024-01-12T13:52:48.784Z,-8.50
2024-01-12T13:55:16.341Z,-8.61
2024-01-12T13:57:43.993Z,-8.73
2024-01-12T14:00:15.305Z,-8.80
2024-01-12T14:02:43.157Z,-8.93
2024-01-12T14:05:17.530Z,-9.11
2024-01-12T14:07:46.101Z,-9.17
2024-01-12T14:10:13.891Z,-9.23
2024-01-12T14:12:41.353Z,-9.30
2024-01-12T14:15:09.542Z,-9.34
2024-01-12T14:17:37.300Z,-9.39
2024-01-12T14:20:05.525Z,-9.42
2024-01-12T14:22:33.340Z,-9.49
2024-01-12T14:25:00.899Z,-9.56
2024-01-12T14:27:28.458Z,-9.56
2024-01-12T14:29:56.732Z,-9.58
2024-01-12T14:32:24.544Z,-9.64
2024-01-12T14:34:52.866Z,-9.68
2024-01-12T14:37:20.272Z,-9.69
2024-01-12T14:39:47.904Z,-9.73
2024-01-12T14:42:17.410Z,-9.80
2024-01-12T14:44:45.054Z,-9.83
2024-01-12T14:47:14.903Z,-9.86
2024-01-12T14:49:42.804Z,-9.91
2024-01-12T14:52:10.529Z,-9.91
2024-01-12T14:54:38.051Z,-9.96
2024-01-12T14:57:05.664Z,-10.00
2024-01-12T14:59:33.349Z,-10.06
2024-01-12T15:02:00.908Z,-10.12
2024-01-12T15:04:28.469Z,-10.14
2024-01-12T15:06:57.334Z,-10.15
2024-01-12T15:09:25.222Z,-10.21
2024-01-12T15:11:52.863Z,-10.24
2024-01-12T15:14:20.845Z,-10.28
2024-01-12T15:16:48.639Z,-10.31
2024-01-12T15:19:16.472Z,-10.35
2024-01-12T15:21:44.135Z,-10.37
2024-01-12T15:24:11.658Z,-10.42
2024-01-12T15:26:39.167Z,-10.48
2024-01-12T15:29:06.820Z,-10.50
2024-01-12T15:31:34.423Z,-10.53
2024-01-12T15:34:02.284Z,-10.55
2024-01-12T15:36:30.033Z,-10.57
2024-01-12T15:38:57.651Z,-10.60
2024-01-12T15:41:25.428Z,-10.61
2024-01-12T15:43:53.031Z,-10.60
2024-01-12T15:46:20.577Z,-10.63
2024-01-12T15:48:48.381Z,-10.67
2024-01-12T15:51:16.633Z,-10.70
2024-01-12T15:53:44.312Z,-10.74
2024-01-12T15:56:11.941Z,-10.77
2024-01-12T15:58:40.215Z,-10.81
2024-01-12T16:01:07.779Z,-10.84
2024-01-12T16:03:35.357Z,-10.86
2024-01-12T16:06:12.010Z,-10.88
2024-01-12T16:08:39.718Z,-10.89
2024-01-12T16:11:07.234Z,-10.92
2024-01-12T16:13:34.796Z,-10.93
2024-01-12T16:16:02.185Z,-10.95
2024-01-12T16:18:29.749Z,-10.97
2024-01-12T16:20:57.409Z,-10.96
2024-01-12T16:23:24.959Z,-10.96
2024-01-12T16:25:52.400Z,-10.97
2024-01-12T16:28:19.794Z,-10.99
2024-01-12T16:30:47.177Z,-11.02
2024-01-12T16:33:14.835Z,-11.05
2024-01-12T16:35:42.626Z,-11.07
2024-01-12T16:38:11.035Z,-11.08
2024-01-12T16:40:38.612Z,-11.11
2024-01-12T16:43:05.999Z,-11.14
2024-01-12T16:45:33.436Z,-11.15
2024-01-12T16:48:01.207Z,-11.16
2024-01-12T16:50:28.911Z,-11.19
2024-01-12T16:52:56.650Z,-11.21
2024-01-12T16:55:25.837Z,-11.23
2024-01-12T16:57:54.691Z,-11.25
2024-01-12T17:00:22.904Z,-11.27
2024-01-12T17:02:50.386Z,-11.31
2024-01-12T17:05:18.030Z,-11.34
2024-01-12T17:07:45.504Z,-11.35
2024-01-12T17:10:13.011Z,-11.35
2024-01-12T17:12:40.571Z,-11.34
2024-01-12T17:15:08.588Z,-11.34
2024-01-12T17:17:36.351Z,-11.34
2024-01-12T17:20:04.291Z,-11.32
2024-01-12T17:22:31.882Z,-11.30
2024-01-12T17:24:59.345Z,-11.30
2024-01-12T17:27:28.372Z,-11.30
2024-01-12T17:29:56.643Z,-11.30
2024-01-12T17:32:27.831Z,-11.29
2024-01-12T17:34:55.722Z,-11.29
2024-01-12T17:37:23.686Z,-11.27
2024-01-12T17:39:54.081Z,-11.27
2024-01-12T17:42:22.792Z,-11.27
2024-01-12T17:44:50.377Z,-11.26
2024-01-12T17:47:19.459Z,-11.25
2024-01-12T17:49:46.970Z,-11.26
2024-01-12T17:52:14.663Z,-11.25
2024-01-12T17:54:42.048Z,-11.27
2024-01-12T17:57:09.634Z,-11.28
2024-01-12T17:59:37.365Z,-11.30
2024-01-12T18:02:04.936Z,-11.31
2024-01-12T18:04:33.000Z,-11.34
2024-01-12T18:07:00.603Z,-11.37
2024-01-12T18:09:28.128Z,-11.36
2024-01-12T18:11:56.018Z,-11.35
2024-01-12T18:14:23.744Z,-11.36
2024-01-12T18:16:51.239Z,-11.36
2024-01-12T18:19:20.338Z,-11.35
2024-01-12T18:21:47.964Z,-11.34
2024-01-12T18:24:15.669Z,-11.32
2024-01-12T18:26:43.266Z,-11.30
2024-01-12T18:29:10.661Z,-11.30
2024-01-12T18:31:38.208Z,-11.28
2024-01-12T18:34:05.907Z,-11.28
2024-01-12T18:36:35.142Z,-11.28
2024-01-12T18:39:03.026Z,-11.30
2024-01-12T18:41:30.615Z,-11.31
2024-01-12T18:43:58.251Z,-11.33
2024-01-12T18:46:25.658Z,-11.32
2024-01-12T18:48:53.659Z,-11.32
2024-01-12T18:51:21.350Z,-11.32
2024-01-12T18:53:49.164Z,-11.31
2024-01-12T18:56:16.982Z,-11.32
2024-01-12T18:58:44.641Z,-11.31
2024-01-12T19:01:12.228Z,-11.30
2024-01-12T19:03:42.342Z,-11.28
2024-01-12T19:06:10.199Z,-11.24
2024-01-12T19:08:37.896Z,-11.20
2024-01-12T19:11:06.463Z,-11.18
2024-01-12T19:13:34.115Z,-11.17
2024-01-12T19:16:02.181Z,-11.17
2024-01-12T19:18:30.081Z,-11.16
2024-01-12T19:20:59.400Z,-11.14
2024-01-12T19:23:27.117Z,-11.14
2024-01-12T19:25:54.749Z,-11.13
2024-01-12T19:28:22.249Z,-11.12
2024-01-12T19:30:51.090Z,-11.10
2024-01-12T19:33:18.854Z,-11.11
2024-01-12T19:35:47.324Z,-11.12
2024-01-12T19:38:16.927Z,-11.11
2024-01-12T19:40:44.564Z,-11.09
2024-01-12T19:43:12.081Z,-11.09
2024-01-12T19:45:39.682Z,-11.10
2024-01-12T19:48:07.415Z,-11.11
2024-01-12T19:50:35.072Z,-11.15
2024-01-12T19:53:02.725Z,-11.16
2024-01-12T19:55:30.244Z,-11.17
2024-01-12T19:57:59.125Z,-11.17
2024-01-12T20:00:26.722Z,-11.17
2024-01-12T20:02:54.904Z,-11.17
2024-01-12T20:05:22.673Z,-11.16
2024-01-12T20:07:51.051Z,-11.16
2024-01-12T20:10:18.887Z,-11.16
2024-01-12T20:12:48.290Z,-11.15
2024-01-12T20:15:18.947Z,-11.14
2024-01-12T20:17:46.649Z,-11.09
2024-01-12T20:20:14.533Z,-11.07
2024-01-12T20:22:42.315Z,-11.07
2024-01-12T20:25:10.292Z,-11.08
2024-01-12T20:27:37.969Z,-11.06
2024-01-12T20:30:06.372Z,-11.03
2024-01-12T20:32:34.329Z,-11.01
2024-01-12T20:35:02.204Z,-11.03
2024-01-12T20:37:32.391Z,-11.01
2024-01-12T20:39:59.868Z,-11.00
2024-01-12T20:42:27.317Z,-11.00
2024-01-12T20:44:54.980Z,-11.02
2024-01-12T20:47:25.977Z,-11.02
2024-01-12T20:49:53.686Z,-10.99
2024-01-12T20:52:22.970Z,-10.99
2024-01-12T20:54:51.990Z,-10.99
2024-01-12T20:57:19.547Z,-11.01
2024-01-12T20:59:46.967Z,-10.99
2024-01-12T21:02:14.514Z,-11.00
2024-01-12T21:04:42.130Z,-10.99
2024-01-12T21:07:10.612Z,-11.01
2024-01-12T21:09:38.167Z,-11.00
2024-01-12T21:12:06.201Z,-10.98
2024-01-12T21:14:33.987Z,-11.00
2024-01-12T21:17:01.578Z,-11.01
2024-01-12T21:19:29.276Z,-10.98
2024-01-12T21:21:57.019Z,-10.97
2024-01-12T21:24:24.566Z,-10.97
2024-01-12T21:26:52.214Z,-10.94
2024-01-12T21:29:19.799Z,-10.95
2024-01-12T21:31:47.419Z,-10.95
2024-01-12T21:34:14.955Z,-10.97
2024-01-12T21:36:42.593Z,-10.98
2024-01-12T21:39:10.495Z,-11.00
2024-01-12T21:41:38.259Z,-11.02
2024-01-12T21:44:05.769Z,-11.01
2024-01-12T21:46:33.536Z,-11.02
2024-01-12T21:49:04.386Z,-11.02
2024-01-12T21:51:31.944Z,-11.02
2024-01-12T21:53:59.544Z,-11.01
2024-01-12T21:56:27.728Z,-11.01
2024-01-12T21:58:55.226Z,-11.05
2024-01-12T22:01:22.800Z,-11.02
2024-01-12T22:03:50.262Z,-11.03
2024-01-12T22:06:17.870Z,-11.00
2024-01-12T22:08:45.391Z,-11.00
2024-01-12T22:11:12.855Z,-10.99
2024-01-12T22:13:40.393Z,-10.96
2024-01-12T22:16:07.851Z,-10.95
2024-01-12T22:18:35.471Z,-10.91
2024-01-12T22:21:03.214Z,-10.86
2024-01-12T22:23:30.919Z,-10.84
2024-01-12T22:25:58.607Z,-10.80
2024-01-12T22:28:26.177Z,-10.77
2024-01-12T22:30:53.671Z,-10.75
2024-01-12T22:33:24.376Z,-10.74
2024-01-12T22:35:52.816Z,-10.73
2024-01-12T22:38:22.358Z,-10.71
2024-01-12T22:40:49.917Z,-10.69
2024-01-12T22:43:17.406Z,-10.69
2024-01-12T22:45:44.831Z,-10.63
2024-01-12T22:48:12.587Z,-10.59
2024-01-12T22:50:40.530Z,-10.60
2024-01-12T22:53:08.538Z,-10.64
2024-01-12T22:55:36.101Z,-10.68
2024-01-12T22:58:03.559Z,-10.75
2024-01-12T23:00:34.300Z,-10.77
2024-01-12T23:03:02.116Z,-10.77
2024-01-12T23:05:30.136Z,-10.75
2024-01-12T23:07:57.700Z,-10.74
2024-01-12T23:10:25.160Z,-10.72
2024-01-12T23:12:52.629Z,-10.66
2024-01-12T23:15:20.281Z,-10.61
2024-01-12T23:17:47.927Z,-10.56
2024-01-12T23:20:18.251Z,-10.49
2024-01-12T23:22:47.884Z,-10.41
2024-01-12T23:25:15.340Z,-10.35
2024-01-12T23:27:42.800Z,-10.35
2024-01-12T23:30:10.889Z,-10.34
2024-01-12T23:32:38.813Z,-10.33
2024-01-12T23:35:09.925Z,-10.32
2024-01-12T23:37:37.666Z,-10.32
2024-01-12T23:40:05.521Z,-10.33
2024-01-12T23:42:32.978Z,-10.30
2024-01-12T23:45:00.514Z,-10.30
2024-01-12T23:47:28.145Z,-10.21
2024-01-12T23:49:55.814Z,-10.15
2024-01-12T23:52:23.329Z,-10.11
2024-01-12T23:54:51.511Z,-10.12
2024-01-12T23:57:19.160Z,-10.13
2024-01-12T23:59:46.736Z,-10.12
